sensor_id;sensor_type;location;lat;lon;timestamp;P1;durP1;ratioP1;P2;durP2;ratioP2
76475;SDS011;65308;50.078;14.854;2023-03-19T05:58:41;27.88;;;12.20;;
76475;SDS011;65308;50.078;14.854;2023-03-19T06:01:12;23.70;;;13.70;;
76475;SDS011;65308;50.078;14.854;2023-03-19T06:03:55;23.67;;;13.23;;
76475;SDS011;65308;50.078;14.854;2023-03-19T06:06:38;20.77;;;11.68;;
76475;SDS011;65308;50.078;14.854;2023-03-19T06:09:10;21.85;;;10.93;;
76475;SDS011;65308;50.078;14.854;2023-03-19T06:11:45;20.17;;;12.13;;
76475;SDS011;65308;50.078;14.854;2023-03-19T06:14:18;23.50;;;12.55;;
76475;SDS011;65308;50.078;14.854;2023-03-19T06:16:50;23.25;;;11.70;;
76475;SDS011;65308;50.078;14.854;2023-03-19T06:19:25;30.35;;;16.80;;
76475;SDS011;65308;50.078;14.854;2023-03-19T06:21:56;27.60;;;16.95;;
76475;SDS011;65308;50.078;14.854;2023-03-19T06:24:28;21.50;;;12.73;;
76475;SDS011;65308;50.078;14.854;2023-03-19T06:26:55;21.65;;;12.88;;
76475;SDS011;65308;50.078;14.854;2023-03-19T06:29:29;25.50;;;13.45;;
76475;SDS011;65308;50.078;14.854;2023-03-19T06:31:57;29.17;;;16.58;;
76475;SDS011;65308;50.078;14.854;2023-03-19T06:34:24;33.30;;;18.48;;
76475;SDS011;65308;50.078;14.854;2023-03-19T06:37:04;26.48;;;15.32;;
76475;SDS011;65308;50.078;14.854;2023-03-19T06:39:57;27.10;;;15.48;;
76475;SDS011;65308;50.078;14.854;2023-03-19T06:42:31;23.98;;;14.27;;
76475;SDS011;65308;50.078;14.854;2023-03-19T07:51:58;22.10;;;15.15;;
76475;SDS011;65308;50.078;14.854;2023-03-19T07:54:27;19.10;;;12.60;;
76475;SDS011;65308;50.078;14.854;2023-03-19T07:56:58;21.23;;;12.57;;
76475;SDS011;65308;50.078;14.854;2023-03-19T07:59:26;21.60;;;13.38;;
76475;SDS011;65308;50.078;14.854;2023-03-19T08:02:11;24.67;;;13.70;;
76475;SDS011;65308;50.078;14.854;2023-03-19T08:14:51;21.33;;;13.93;;
76475;SDS011;65308;50.078;14.854;2023-03-19T08:20:06;23.85;;;16.25;;
76475;SDS011;65308;50.078;14.854;2023-03-19T08:22:41;35.67;;;22.27;;
76475;SDS011;65308;50.078;14.854;2023-03-19T08:25:17;28.73;;;19.38;;
76475;SDS011;65308;50.078;14.854;2023-03-19T08:27:50;23.38;;;16.63;;
76475;SDS011;65308;50.078;14.854;2023-03-19T08:30:21;24.38;;;16.42;;
76475;SDS011;65308;50.078;14.854;2023-03-19T08:32:50;22.35;;;15.35;;
76475;SDS011;65308;50.078;14.854;2023-03-19T08:35:22;21.58;;;14.85;;
76475;SDS011;65308;50.078;14.854;2023-03-19T08:37:54;18.42;;;14.85;;
76475;SDS011;65308;50.078;14.854;2023-03-19T08:40:28;18.10;;;13.73;;
76475;SDS011;65308;50.078;14.854;2023-03-19T08:42:55;19.60;;;14.35;;
76475;SDS011;65308;50.078;14.854;2023-03-19T08:45:33;15.23;;;12.20;;
76475;SDS011;65308;50.078;14.854;2023-03-19T08:48:02;17.25;;;12.27;;
76475;SDS011;65308;50.078;14.854;2023-03-19T08:50:38;15.00;;;12.15;;
76475;SDS011;65308;50.078;14.854;2023-03-19T08:53:06;15.65;;;11.75;;
76475;SDS011;65308;50.078;14.854;2023-03-19T08:55:34;16.75;;;12.90;;
76475;SDS011;65308;50.078;14.854;2023-03-19T08:58:05;17.60;;;12.70;;
76475;SDS011;65308;50.078;14.854;2023-03-19T09:00:44;16.15;;;12.43;;
76475;SDS011;65308;50.078;14.854;2023-03-19T09:03:16;20.23;;;11.63;;
76475;SDS011;65308;50.078;14.854;2023-03-19T09:05:49;19.40;;;12.43;;
76475;SDS011;65308;50.078;14.854;2023-03-19T09:08:42;18.77;;;12.57;;
76475;SDS011;65308;50.078;14.854;2023-03-19T09:11:09;20.48;;;12.25;;
76475;SDS011;65308;50.078;14.854;2023-03-19T09:13:42;22.45;;;12.60;;
76475;SDS011;65308;50.078;14.854;2023-03-19T09:16:18;16.65;;;11.27;;
76475;SDS011;65308;50.078;14.854;2023-03-19T09:18:45;16.27;;;13.27;;
76475;SDS011;65308;50.078;14.854;2023-03-19T09:21:27;17.60;;;12.30;;
76475;SDS011;65308;50.078;14.854;2023-03-19T09:24:10;15.30;;;11.60;;
76475;SDS011;65308;50.078;14.854;2023-03-19T09:26:41;16.15;;;11.43;;
76475;SDS011;65308;50.078;14.854;2023-03-19T09:34:26;15.18;;;11.00;;
76475;SDS011;65308;50.078;14.854;2023-03-19T09:37:08;14.10;;;11.00;;
76475;SDS011;65308;50.078;14.854;2023-03-19T09:39:37;13.25;;;10.95;;
76475;SDS011;65308;50.078;14.854;2023-03-19T09:42:14;14.23;;;10.48;;
76475;SDS011;65308;50.078;14.854;2023-03-19T09:44:58;16.33;;;12.82;;
76475;SDS011;65308;50.078;14.854;2023-03-19T09:47:29;15.80;;;11.40;;
76475;SDS011;65308;50.078;14.854;2023-03-19T09:57:56;17.77;;;13.73;;
76475;SDS011;65308;50.078;14.854;2023-03-19T10:00:40;15.75;;;13.10;;
76475;SDS011;65308;50.078;14.854;2023-03-19T10:03:28;15.55;;;12.55;;
76475;SDS011;65308;50.078;14.854;2023-03-19T10:06:24;34.65;;;13.43;;
76475;SDS011;65308;50.078;14.854;2023-03-19T10:12:19;15.80;;;13.15;;
76475;SDS011;65308;50.078;14.854;2023-03-19T10:15:20;17.40;;;13.60;;
76475;SDS011;65308;50.078;14.854;2023-03-19T10:18:12;22.10;;;14.45;;
76475;SDS011;65308;50.078;14.854;2023-03-19T10:23:42;23.20;;;14.60;;
76475;SDS011;65308;50.078;14.854;2023-03-19T10:26:27;32.85;;;14.48;;
76475;SDS011;65308;50.078;14.854;2023-03-19T10:45:01;17.73;;;12.68;;
76475;SDS011;65308;50.078;14.854;2023-03-19T10:47:37;20.05;;;14.27;;
76475;SDS011;65308;50.078;14.854;2023-03-19T10:50:09;26.10;;;14.82;;
76475;SDS011;65308;50.078;14.854;2023-03-19T10:52:45;18.00;;;14.68;;
76475;SDS011;65308;50.078;14.854;2023-03-19T10:55:16;18.95;;;14.60;;
76475;SDS011;65308;50.078;14.854;2023-03-19T10:57:55;18.10;;;14.45;;
76475;SDS011;65308;50.078;14.854;2023-03-19T11:02:56;21.27;;;13.00;;
76475;SDS011;65308;50.078;14.854;2023-03-19T11:05:24;20.90;;;12.98;;
76475;SDS011;65308;50.078;14.854;2023-03-19T11:07:56;18.63;;;12.70;;
76475;SDS011;65308;50.078;14.854;2023-03-19T11:10:25;19.17;;;13.13;;
76475;SDS011;65308;50.078;14.854;2023-03-19T11:12:54;17.77;;;14.35;;
76475;SDS011;65308;50.078;14.854;2023-03-19T11:15:25;17.30;;;13.82;;
76475;SDS011;65308;50.078;14.854;2023-03-19T11:17:57;16.77;;;12.38;;
76475;SDS011;65308;50.078;14.854;2023-03-19T11:20:26;18.23;;;14.13;;
76475;SDS011;65308;50.078;14.854;2023-03-19T11:22:58;15.30;;;12.38;;
76475;SDS011;65308;50.078;14.854;2023-03-19T11:25:28;17.60;;;12.70;;
76475;SDS011;65308;50.078;14.854;2023-03-19T11:27:57;16.02;;;12.10;;
76475;SDS011;65308;50.078;14.854;2023-03-19T11:30:27;14.38;;;10.07;;
76475;SDS011;65308;50.078;14.854;2023-03-19T11:33:15;17.30;;;11.77;;
76475;SDS011;65308;50.078;14.854;2023-03-19T11:35:53;14.77;;;12.93;;
76475;SDS011;65308;50.078;14.854;2023-03-19T11:38:28;15.88;;;12.60;;
76475;SDS011;65308;50.078;14.854;2023-03-19T11:41:03;16.83;;;12.63;;
76475;SDS011;65308;50.078;14.854;2023-03-19T11:43:46;16.33;;;12.82;;
76475;SDS011;65308;50.078;14.854;2023-03-19T11:46:19;16.25;;;12.75;;
76475;SDS011;65308;50.078;14.854;2023-03-19T11:49:02;18.50;;;10.80;;
76475;SDS011;65308;50.078;14.854;2023-03-19T11:51:45;16.05;;;11.98;;
76475;SDS011;65308;50.078;14.854;2023-03-19T11:54:21;15.98;;;12.27;;
76475;SDS011;65308;50.078;14.854;2023-03-19T11:56:53;16.40;;;13.07;;
76475;SDS011;65308;50.078;14.854;2023-03-19T11:59:31;16.60;;;12.40;;
76475;SDS011;65308;50.078;14.854;2023-03-19T12:02:20;14.90;;;10.13;;
76475;SDS011;65308;50.078;14.854;2023-03-19T12:05:09;17.00;;;12.35;;
76475;SDS011;65308;50.078;14.854;2023-03-19T12:07:44;16.45;;;11.68;;
76475;SDS011;65308;50.078;14.854;2023-03-19T12:10:25;13.75;;;10.98;;
76475;SDS011;65308;50.078;14.854;2023-03-19T12:12:57;16.88;;;11.45;;
76475;SDS011;65308;50.078;14.854;2023-03-19T12:15:49;17.20;;;13.18;;
76475;SDS011;65308;50.078;14.854;2023-03-19T12:18:43;16.35;;;12.15;;
76475;SDS011;65308;50.078;14.854;2023-03-19T12:21:38;16.02;;;12.88;;
76475;SDS011;65308;50.078;14.854;2023-03-19T12:24:18;14.32;;;10.88;;
76475;SDS011;65308;50.078;14.854;2023-03-19T12:26:55;16.30;;;12.02;;
76475;SDS011;65308;50.078;14.854;2023-03-19T12:29:35;14.57;;;10.95;;
76475;SDS011;65308;50.078;14.854;2023-03-19T12:32:13;17.75;;;13.50;;
76475;SDS011;65308;50.078;14.854;2023-03-19T12:34:48;19.80;;;11.60;;
76475;SDS011;65308;50.078;14.854;2023-03-19T12:37:25;18.38;;;12.88;;
76475;SDS011;65308;50.078;14.854;2023-03-19T12:40:02;29.85;;;13.82;;
76475;SDS011;65308;50.078;14.854;2023-03-19T12:42:36;16.50;;;12.93;;
76475;SDS011;65308;50.078;14.854;2023-03-19T12:45:07;18.98;;;13.50;;
76475;SDS011;65308;50.078;14.854;2023-03-19T12:47:44;17.70;;;12.75;;
76475;SDS011;65308;50.078;14.854;2023-03-19T12:50:15;18.17;;;12.93;;
76475;SDS011;65308;50.078;14.854;2023-03-19T12:52:49;17.55;;;13.25;;
76475;SDS011;65308;50.078;14.854;2023-03-19T12:57:46;17.75;;;13.57;;
76475;SDS011;65308;50.078;14.854;2023-03-19T13:00:16;18.02;;;12.82;;
76475;SDS011;65308;50.078;14.854;2023-03-19T13:02:50;16.42;;;12.90;;
76475;SDS011;65308;50.078;14.854;2023-03-19T13:05:24;16.77;;;12.30;;
76475;SDS011;65308;50.078;14.854;2023-03-19T13:07:58;18.38;;;13.00;;
76475;SDS011;65308;50.078;14.854;2023-03-19T13:10:33;16.02;;;12.45;;
76475;SDS011;65308;50.078;14.854;2023-03-19T13:13:05;14.23;;;11.32;;
76475;SDS011;65308;50.078;14.854;2023-03-19T13:15:47;14.63;;;11.20;;
76475;SDS011;65308;50.078;14.854;2023-03-19T13:18:20;13.93;;;10.65;;
76475;SDS011;65308;50.078;14.854;2023-03-19T13:21:01;15.73;;;10.98;;
76475;SDS011;65308;50.078;14.854;2023-03-19T13:23:43;14.88;;;10.50;;
76475;SDS011;65308;50.078;14.854;2023-03-19T13:26:15;17.27;;;13.05;;
76475;SDS011;65308;50.078;14.854;2023-03-19T13:29:06;18.25;;;13.70;;
76475;SDS011;65308;50.078;14.854;2023-03-19T13:31:37;17.50;;;13.73;;
76475;SDS011;65308;50.078;14.854;2023-03-19T13:34:05;18.10;;;13.40;;
76475;SDS011;65308;50.078;14.854;2023-03-19T13:37:02;14.98;;;11.15;;
76475;SDS011;65308;50.078;14.854;2023-03-19T13:39:34;18.75;;;14.25;;
76475;SDS011;65308;50.078;14.854;2023-03-19T13:42:07;18.98;;;11.80;;
76475;SDS011;65308;50.078;14.854;2023-03-19T13:44:40;15.27;;;12.77;;
76475;SDS011;65308;50.078;14.854;2023-03-19T13:53:11;16.77;;;13.13;;
76475;SDS011;65308;50.078;14.854;2023-03-19T13:55:53;14.60;;;11.57;;
76475;SDS011;65308;50.078;14.854;2023-03-19T13:58:21;16.38;;;13.10;;
76475;SDS011;65308;50.078;14.854;2023-03-19T14:01:11;16.77;;;12.48;;
76475;SDS011;65308;50.078;14.854;2023-03-19T14:06:42;16.50;;;12.10;;
76475;SDS011;65308;50.078;14.854;2023-03-19T14:12:20;18.00;;;13.43;;
76475;SDS011;65308;50.078;14.854;2023-03-19T14:14:50;17.92;;;12.50;;
76475;SDS011;65308;50.078;14.854;2023-03-19T14:17:23;16.88;;;13.02;;
76475;SDS011;65308;50.078;14.854;2023-03-19T14:20:02;16.00;;;11.50;;
76475;SDS011;65308;50.078;14.854;2023-03-19T14:22:36;15.63;;;11.38;;
76475;SDS011;65308;50.078;14.854;2023-03-19T14:25:15;16.85;;;12.32;;
76475;SDS011;65308;50.078;14.854;2023-03-19T14:27:44;15.77;;;11.77;;
76475;SDS011;65308;50.078;14.854;2023-03-19T14:30:18;16.00;;;12.35;;
76475;SDS011;65308;50.078;14.854;2023-03-19T14:32:51;19.75;;;13.82;;
76475;SDS011;65308;50.078;14.854;2023-03-19T14:35:22;16.55;;;12.63;;
76475;SDS011;65308;50.078;14.854;2023-03-19T14:37:50;18.63;;;11.40;;
76475;SDS011;65308;50.078;14.854;2023-03-19T14:40:23;17.58;;;12.10;;
76475;SDS011;65308;50.078;14.854;2023-03-19T14:42:55;18.65;;;12.52;;
76475;SDS011;65308;50.078;14.854;2023-03-19T14:45:40;16.58;;;11.55;;
76475;SDS011;65308;50.078;14.854;2023-03-19T14:50:52;19.80;;;14.35;;
76475;SDS011;65308;50.078;14.854;2023-03-19T14:53:42;19.63;;;13.75;;
76475;SDS011;65308;50.078;14.854;2023-03-19T14:56:13;18.10;;;12.15;;
76475;SDS011;65308;50.078;14.854;2023-03-19T14:58:50;18.67;;;13.25;;
76475;SDS011;65308;50.078;14.854;2023-03-19T15:01:18;22.70;;;14.48;;
76475;SDS011;65308;50.078;14.854;2023-03-19T15:03:50;18.20;;;12.77;;
76475;SDS011;65308;50.078;14.854;2023-03-19T15:06:24;19.77;;;13.50;;
76475;SDS011;65308;50.078;14.854;2023-03-19T15:08:56;23.65;;;15.10;;
76475;SDS011;65308;50.078;14.854;2023-03-19T15:11:32;17.08;;;12.00;;
76475;SDS011;65308;50.078;14.854;2023-03-19T15:14:13;17.42;;;12.52;;
76475;SDS011;65308;50.078;14.854;2023-03-19T15:16:58;19.92;;;13.43;;
76475;SDS011;65308;50.078;14.854;2023-03-19T15:19:28;17.67;;;12.40;;
76475;SDS011;65308;50.078;14.854;2023-03-19T15:27:15;18.48;;;12.82;;
76475;SDS011;65308;50.078;14.854;2023-03-19T15:29:45;20.77;;;12.57;;
76475;SDS011;65308;50.078;14.854;2023-03-19T15:32:12;19.17;;;13.80;;
76475;SDS011;65308;50.078;14.854;2023-03-19T15:34:58;18.75;;;12.90;;
76475;SDS011;65308;50.078;14.854;2023-03-19T15:37:31;17.10;;;12.30;;
76475;SDS011;65308;50.078;14.854;2023-03-19T15:47:48;21.17;;;13.00;;
76475;SDS011;65308;50.078;14.854;2023-03-19T15:50:35;20.42;;;12.93;;
76475;SDS011;65308;50.078;14.854;2023-03-19T15:53:11;20.85;;;14.20;;
76475;SDS011;65308;50.078;14.854;2023-03-19T15:55:46;21.73;;;14.38;;
76475;SDS011;65308;50.078;14.854;2023-03-19T16:03:24;19.65;;;12.52;;
76475;SDS011;65308;50.078;14.854;2023-03-19T16:05:54;18.90;;;12.82;;
76475;SDS011;65308;50.078;14.854;2023-03-19T16:08:25;17.27;;;12.02;;
76475;SDS011;65308;50.078;14.854;2023-03-19T16:16:05;18.83;;;12.80;;
76475;SDS011;65308;50.078;14.854;2023-03-19T16:21:13;20.23;;;13.43;;
76475;SDS011;65308;50.078;14.854;2023-03-19T16:23:43;19.98;;;13.40;;
76475;SDS011;65308;50.078;14.854;2023-03-19T16:26:18;21.70;;;13.60;;
76475;SDS011;65308;50.078;14.854;2023-03-19T16:28:48;21.40;;;14.07;;
76475;SDS011;65308;50.078;14.854;2023-03-19T16:31:23;20.20;;;13.48;;
76475;SDS011;65308;50.078;14.854;2023-03-19T16:33:52;21.45;;;13.27;;
76475;SDS011;65308;50.078;14.854;2023-03-19T16:36:22;19.42;;;13.13;;
76475;SDS011;65308;50.078;14.854;2023-03-19T16:38:55;22.00;;;13.77;;
76475;SDS011;65308;50.078;14.854;2023-03-19T16:41:23;31.38;;;13.75;;
76475;SDS011;65308;50.078;14.854;2023-03-19T16:43:58;21.33;;;14.15;;
76475;SDS011;65308;50.078;14.854;2023-03-19T16:46:36;19.02;;;12.95;;
76475;SDS011;65308;50.078;14.854;2023-03-19T16:49:03;22.23;;;14.32;;
76475;SDS011;65308;50.078;14.854;2023-03-19T16:51:32;21.83;;;13.70;;
76475;SDS011;65308;50.078;14.854;2023-03-19T16:53:59;20.02;;;14.40;;
76475;SDS011;65308;50.078;14.854;2023-03-19T16:56:26;23.25;;;13.88;;
76475;SDS011;65308;50.078;14.854;2023-03-19T16:58:53;21.08;;;14.13;;
76475;SDS011;65308;50.078;14.854;2023-03-19T17:01:20;20.45;;;13.82;;
76475;SDS011;65308;50.078;14.854;2023-03-19T17:03:48;21.30;;;13.90;;
76475;SDS011;65308;50.078;14.854;2023-03-19T17:06:15;19.83;;;13.50;;
76475;SDS011;65308;50.078;14.854;2023-03-19T17:08:44;23.13;;;13.93;;
76475;SDS011;65308;50.078;14.854;2023-03-19T17:13:46;19.48;;;14.27;;
76475;SDS011;65308;50.078;14.854;2023-03-19T17:16:12;21.95;;;13.35;;
76475;SDS011;65308;50.078;14.854;2023-03-19T17:18:42;19.13;;;13.10;;
76475;SDS011;65308;50.078;14.854;2023-03-19T17:21:12;22.98;;;13.80;;
76475;SDS011;65308;50.078;14.854;2023-03-19T17:31:41;29.60;;;17.75;;
76475;SDS011;65308;50.078;14.854;2023-03-19T17:36:41;26.45;;;17.75;;
76475;SDS011;65308;50.078;14.854;2023-03-19T17:39:11;27.40;;;20.05;;
76475;SDS011;65308;50.078;14.854;2023-03-19T17:41:38;33.33;;;21.83;;
76475;SDS011;65308;50.078;14.854;2023-03-19T17:44:05;32.83;;;21.10;;
76475;SDS011;65308;50.078;14.854;2023-03-19T17:46:34;36.22;;;20.73;;
76475;SDS011;65308;50.078;14.854;2023-03-19T17:54:12;28.20;;;18.67;;
76475;SDS011;65308;50.078;14.854;2023-03-19T17:56:42;28.42;;;19.55;;
76475;SDS011;65308;50.078;14.854;2023-03-19T17:59:11;30.98;;;20.48;;
76475;SDS011;65308;50.078;14.854;2023-03-19T18:01:38;32.63;;;20.20;;
76475;SDS011;65308;50.078;14.854;2023-03-19T18:04:09;35.13;;;22.45;;
76475;SDS011;65308;50.078;14.854;2023-03-19T18:06:40;65.60;;;37.70;;
76475;SDS011;65308;50.078;14.854;2023-03-19T18:09:15;72.28;;;43.97;;
76475;SDS011;65308;50.078;14.854;2023-03-19T18:11:44;65.40;;;37.47;;
76475;SDS011;65308;50.078;14.854;2023-03-19T18:14:11;72.53;;;41.25;;
76475;SDS011;65308;50.078;14.854;2023-03-19T18:16:38;78.22;;;42.85;;
76475;SDS011;65308;50.078;14.854;2023-03-19T18:19:14;56.65;;;32.83;;
76475;SDS011;65308;50.078;14.854;2023-03-19T18:21:45;77.25;;;41.08;;
76475;SDS011;65308;50.078;14.854;2023-03-19T18:24:12;63.60;;;36.15;;
76475;SDS011;65308;50.078;14.854;2023-03-19T18:26:43;50.00;;;31.65;;
76475;SDS011;65308;50.078;14.854;2023-03-19T18:29:13;46.00;;;27.67;;
76475;SDS011;65308;50.078;14.854;2023-03-19T18:31:47;51.38;;;30.23;;
76475;SDS011;65308;50.078;14.854;2023-03-19T18:34:16;42.97;;;25.60;;
76475;SDS011;65308;50.078;14.854;2023-03-19T18:36:44;36.97;;;22.88;;
76475;SDS011;65308;50.078;14.854;2023-03-19T18:39:11;32.17;;;22.23;;
76475;SDS011;65308;50.078;14.854;2023-03-19T18:44:12;35.78;;;23.30;;
76475;SDS011;65308;50.078;14.854;2023-03-19T18:46:40;35.88;;;22.38;;
76475;SDS011;65308;50.078;14.854;2023-03-19T18:49:12;37.38;;;23.75;;
76475;SDS011;65308;50.078;14.854;2023-03-19T18:51:44;36.47;;;24.58;;
76475;SDS011;65308;50.078;14.854;2023-03-19T18:54:11;44.05;;;30.05;;
76475;SDS011;65308;50.078;14.854;2023-03-19T18:56:41;46.90;;;28.73;;
76475;SDS011;65308;50.078;14.854;2023-03-19T18:59:10;44.50;;;30.52;;
76475;SDS011;65308;50.078;14.854;2023-03-19T19:01:45;47.08;;;29.00;;
76475;SDS011;65308;50.078;14.854;2023-03-19T19:04:12;49.85;;;29.88;;
76475;SDS011;65308;50.078;14.854;2023-03-19T19:06:41;105.07;;;57.58;;
76475;SDS011;65308;50.078;14.854;2023-03-19T19:09:09;52.15;;;33.58;;
76475;SDS011;65308;50.078;14.854;2023-03-19T19:11:37;54.28;;;32.58;;
76475;SDS011;65308;50.078;14.854;2023-03-19T19:14:17;44.65;;;27.98;;
76475;SDS011;65308;50.078;14.854;2023-03-19T19:16:53;42.65;;;26.10;;
76475;SDS011;65308;50.078;14.854;2023-03-19T19:19:24;41.15;;;27.67;;
76475;SDS011;65308;50.078;14.854;2023-03-19T19:21:54;37.17;;;25.13;;
76475;SDS011;65308;50.078;14.854;2023-03-19T19:24:24;36.67;;;26.38;;
76475;SDS011;65308;50.078;14.854;2023-03-19T19:32:02;39.47;;;25.70;;
76475;SDS011;65308;50.078;14.854;2023-03-19T19:34:35;38.35;;;24.77;;
76475;SDS011;65308;50.078;14.854;2023-03-19T19:37:02;33.97;;;23.25;;
76475;SDS011;65308;50.078;14.854;2023-03-19T19:39:29;65.65;;;41.55;;
76475;SDS011;65308;50.078;14.854;2023-03-19T19:44:25;55.88;;;38.63;;
76475;SDS011;65308;50.078;14.854;2023-03-19T19:46:52;42.53;;;28.65;;
76475;SDS011;65308;50.078;14.854;2023-03-19T19:51:49;41.72;;;28.83;;
76475;SDS011;65308;50.078;14.854;2023-03-19T19:54:22;43.67;;;27.98;;
76475;SDS011;65308;50.078;14.854;2023-03-19T19:56:57;39.65;;;26.75;;
76475;SDS011;65308;50.078;14.854;2023-03-19T19:59:23;35.03;;;24.30;;
76475;SDS011;65308;50.078;14.854;2023-03-19T20:01:57;31.92;;;23.13;;
76475;SDS011;65308;50.078;14.854;2023-03-19T20:04:25;36.10;;;24.58;;
76475;SDS011;65308;50.078;14.854;2023-03-19T20:06:52;35.78;;;22.58;;
76475;SDS011;65308;50.078;14.854;2023-03-19T20:09:19;30.70;;;21.45;;
76475;SDS011;65308;50.078;14.854;2023-03-19T20:11:55;40.85;;;27.90;;
76475;SDS011;65308;50.078;14.854;2023-03-19T20:14:24;35.15;;;23.30;;
76475;SDS011;65308;50.078;14.854;2023-03-19T20:16:51;39.00;;;27.38;;
76475;SDS011;65308;50.078;14.854;2023-03-19T20:19:24;44.67;;;29.00;;
76475;SDS011;65308;50.078;14.854;2023-03-19T20:21:57;40.05;;;27.20;;
76475;SDS011;65308;50.078;14.854;2023-03-19T20:24:24;39.78;;;25.27;;
76475;SDS011;65308;50.078;14.854;2023-03-19T20:26:54;39.45;;;25.08;;
76475;SDS011;65308;50.078;14.854;2023-03-19T20:29:23;36.08;;;25.00;;
76475;SDS011;65308;50.078;14.854;2023-03-19T20:31:50;36.35;;;23.85;;
76475;SDS011;65308;50.078;14.854;2023-03-19T20:34:17;36.45;;;25.60;;
76475;SDS011;65308;50.078;14.854;2023-03-19T20:36:44;33.90;;;23.80;;
76475;SDS011;65308;50.078;14.854;2023-03-19T20:41:43;38.47;;;25.33;;
76475;SDS011;65308;50.078;14.854;2023-03-19T20:46:49;36.45;;;25.02;;
76475;SDS011;65308;50.078;14.854;2023-03-19T20:49:16;45.10;;;26.00;;
76475;SDS011;65308;50.078;14.854;2023-03-19T20:51:49;32.95;;;22.38;;
76475;SDS011;65308;50.078;14.854;2023-03-19T20:54:21;38.95;;;22.75;;
76475;SDS011;65308;50.078;14.854;2023-03-19T20:56:58;30.55;;;19.98;;
76475;SDS011;65308;50.078;14.854;2023-03-19T20:59:29;32.53;;;22.48;;
76475;SDS011;65308;50.078;14.854;2023-03-19T21:02:01;33.90;;;21.90;;
76475;SDS011;65308;50.078;14.854;2023-03-19T21:04:28;30.98;;;21.08;;
76475;SDS011;65308;50.078;14.854;2023-03-19T21:06:58;37.53;;;24.30;;
76475;SDS011;65308;50.078;14.854;2023-03-19T21:09:25;35.78;;;23.40;;
76475;SDS011;65308;50.078;14.854;2023-03-19T21:11:52;31.23;;;20.63;;
76475;SDS011;65308;50.078;14.854;2023-03-19T21:14:20;30.63;;;22.65;;
76475;SDS011;65308;50.078;14.854;2023-03-19T21:16:50;32.67;;;21.55;;
76475;SDS011;65308;50.078;14.854;2023-03-19T21:19:17;38.65;;;22.65;;
76475;SDS011;65308;50.078;14.854;2023-03-19T21:21:49;38.67;;;25.88;;
76475;SDS011;65308;50.078;14.854;2023-03-19T21:24:19;40.80;;;28.25;;
76475;SDS011;65308;50.078;14.854;2023-03-19T21:26:49;46.95;;;29.50;;
76475;SDS011;65308;50.078;14.854;2023-03-19T21:29:23;50.95;;;32.92;;
76475;SDS011;65308;50.078;14.854;2023-03-19T21:31:55;52.60;;;35.70;;
76475;SDS011;65308;50.078;14.854;2023-03-19T21:34:24;48.47;;;32.92;;
76475;SDS011;65308;50.078;14.854;2023-03-19T21:36:54;44.13;;;30.33;;
76475;SDS011;65308;50.078;14.854;2023-03-19T21:39:25;42.97;;;28.52;;
76475;SDS011;65308;50.078;14.854;2023-03-19T21:41:52;39.95;;;26.52;;
76475;SDS011;65308;50.078;14.854;2023-03-19T21:44:24;39.80;;;26.00;;
76475;SDS011;65308;50.078;14.854;2023-03-19T21:46:53;40.13;;;26.02;;
76475;SDS011;65308;50.078;14.854;2023-03-19T21:49:20;40.33;;;26.58;;
76475;SDS011;65308;50.078;14.854;2023-03-19T21:51:47;41.40;;;27.13;;
76475;SDS011;65308;50.078;14.854;2023-03-19T21:54:15;36.97;;;25.33;;
76475;SDS011;65308;50.078;14.854;2023-03-19T21:56:43;38.95;;;27.05;;
76475;SDS011;65308;50.078;14.854;2023-03-19T21:59:15;43.58;;;28.70;;
76475;SDS011;65308;50.078;14.854;2023-03-19T22:01:44;44.05;;;29.80;;
76475;SDS011;65308;50.078;14.854;2023-03-19T22:04:11;42.30;;;27.80;;
76475;SDS011;65308;50.078;14.854;2023-03-19T22:06:38;43.47;;;28.88;;
76475;SDS011;65308;50.078;14.854;2023-03-19T22:11:36;36.42;;;26.13;;
76475;SDS011;65308;50.078;14.854;2023-03-19T22:14:09;33.97;;;24.02;;
76475;SDS011;65308;50.078;14.854;2023-03-19T22:16:44;39.20;;;25.48;;
76475;SDS011;65308;50.078;14.854;2023-03-19T22:19:18;37.60;;;25.70;;
76475;SDS011;65308;50.078;14.854;2023-03-19T22:21:45;35.15;;;25.17;;
76475;SDS011;65308;50.078;14.854;2023-03-19T22:24:13;40.50;;;26.75;;
76475;SDS011;65308;50.078;14.854;2023-03-19T22:26:40;41.35;;;27.48;;
76475;SDS011;65308;50.078;14.854;2023-03-19T22:29:10;38.38;;;26.42;;
76475;SDS011;65308;50.078;14.854;2023-03-19T22:31:40;42.50;;;27.48;;
76475;SDS011;65308;50.078;14.854;2023-03-19T22:34:11;41.10;;;27.95;;
76475;SDS011;65308;50.078;14.854;2023-03-19T22:36:39;41.20;;;27.40;;
76475;SDS011;65308;50.078;14.854;2023-03-19T22:39:06;38.88;;;26.15;;
76475;SDS011;65308;50.078;14.854;2023-03-19T22:41:33;40.25;;;26.02;;
76475;SDS011;65308;50.078;14.854;2023-03-19T22:44:03;38.75;;;26.33;;
76475;SDS011;65308;50.078;14.854;2023-03-19T22:46:32;41.42;;;27.27;;
76475;SDS011;65308;50.078;14.854;2023-03-19T22:48:59;43.08;;;27.80;;
76475;SDS011;65308;50.078;14.854;2023-03-19T22:51:30;34.80;;;25.05;;
76475;SDS011;65308;50.078;14.854;2023-03-19T22:53:57;38.13;;;24.95;;
76475;SDS011;65308;50.078;14.854;2023-03-19T22:56:23;38.15;;;25.48;;
76475;SDS011;65308;50.078;14.854;2023-03-19T22:58:50;40.10;;;26.13;;
76475;SDS011;65308;50.078;14.854;2023-03-19T23:01:27;42.03;;;27.17;;
76475;SDS011;65308;50.078;14.854;2023-03-19T23:03:56;39.17;;;24.80;;
76475;SDS011;65308;50.078;14.854;2023-03-19T23:06:37;40.45;;;27.05;;
76475;SDS011;65308;50.078;14.854;2023-03-19T23:09:03;45.47;;;28.55;;
76475;SDS011;65308;50.078;14.854;2023-03-19T23:11:30;42.67;;;27.70;;
76475;SDS011;65308;50.078;14.854;2023-03-19T23:13:56;40.70;;;27.90;;
76475;SDS011;65308;50.078;14.854;2023-03-19T23:16:23;42.30;;;28.17;;
76475;SDS011;65308;50.078;14.854;2023-03-19T23:18:50;47.53;;;29.48;;
76475;SDS011;65308;50.078;14.854;2023-03-19T23:21:18;44.30;;;28.55;;
76475;SDS011;65308;50.078;14.854;2023-03-19T23:23:46;44.70;;;27.33;;
76475;SDS011;65308;50.078;14.854;2023-03-19T23:26:20;46.35;;;28.42;;
76475;SDS011;65308;50.078;14.854;2023-03-19T23:28:50;40.95;;;27.90;;
76475;SDS011;65308;50.078;14.854;2023-03-19T23:31:18;42.55;;;29.17;;
76475;SDS011;65308;50.078;14.854;2023-03-19T23:33:44;48.40;;;30.92;;
76475;SDS011;65308;50.078;14.854;2023-03-19T23:36:11;48.97;;;32.78;;
76475;SDS011;65308;50.078;14.854;2023-03-19T23:38:38;45.35;;;30.70;;
76475;SDS011;65308;50.078;14.854;2023-03-19T23:41:08;43.78;;;29.73;;
76475;SDS011;65308;50.078;14.854;2023-03-19T23:43:42;47.33;;;30.95;;
76475;SDS011;65308;50.078;14.854;2023-03-19T23:46:09;44.42;;;29.10;;
76475;SDS011;65308;50.078;14.854;2023-03-19T23:48:36;50.38;;;30.75;;
76475;SDS011;65308;50.078;14.854;2023-03-19T23:51:03;46.85;;;30.90;;
76475;SDS011;65308;50.078;14.854;2023-03-19T23:53:31;48.33;;;29.92;;
76475;SDS011;65308;50.078;14.854;2023-03-19T23:55:59;50.70;;;32.50;;